sensor_id;sensor_type;location;lat;lon;timestamp;temperature;humidity
15777;DHT22;7989;51.198;6.676;2024-02-23T00:00:12;6.80;99.90
15777;DHT22;7989;51.198;6.676;2024-02-23T00:02:39;6.80;99.90
15777;DHT22;7989;51.198;6.676;2024-02-23T00:05:06;6.80;99.90
15777;DHT22;7989;51.198;6.676;2024-02-23T00:07:34;6.70;99.90
15777;DHT22;7989;51.198;6.676;2024-02-23T00:10:01;6.60;99.90
15777;DHT22;7989;51.198;6.676;2024-02-23T00:12:28;6.50;99.90
15777;DHT22;7989;51.198;6.676;2024-02-23T00:14:55;6.40;99.90
15777;DHT22;7989;51.198;6.676;2024-02-23T00:17:22;6.40;99.90
15777;DHT22;7989;51.198;6.676;2024-02-23T00:19:48;6.30;99.90
15777;DHT22;7989;51.198;6.676;2024-02-23T00:22:18;6.30;99.90
15777;DHT22;7989;51.198;6.676;2024-02-23T00:24:46;6.30;99.90
15777;DHT22;7989;51.198;6.676;2024-02-23T00:27:13;6.30;99.90
15777;DHT22;7989;51.198;6.676;2024-02-23T00:29:39;6.30;99.90
15777;DHT22;7989;51.198;6.676;2024-02-23T00:32:06;6.20;99.90
15777;DHT22;7989;51.198;6.676;2024-02-23T00:34:33;6.20;99.90
15777;DHT22;7989;51.198;6.676;2024-02-23T00:37:00;6.20;99.90
15777;DHT22;7989;51.198;6.676;2024-02-23T00:39:27;6.10;99.90
15777;DHT22;7989;51.198;6.676;2024-02-23T00:41:55;6.10;99.90
15777;DHT22;7989;51.198;6.676;2024-02-23T00:44:22;6.10;99.90
15777;DHT22;7989;51.198;6.676;2024-02-23T00:46:49;6.00;99.90
15777;DHT22;7989;51.198;6.676;2024-02-23T00:49:16;6.00;99.90
15777;DHT22;7989;51.198;6.676;2024-02-23T00:51:43;6.00;99.90
15777;DHT22;7989;51.198;6.676;2024-02-23T00:54:10;6.00;99.90
15777;DHT22;7989;51.198;6.676;2024-02-23T00:56:36;5.90;99.90
15777;DHT22;7989;51.198;6.676;2024-02-23T00:59:05;5.90;99.90
15777;DHT22;7989;51.198;6.676;2024-02-23T01:01:32;5.90;99.90
15777;DHT22;7989;51.198;6.676;2024-02-23T01:03:58;5.90;99.90
15777;DHT22;7989;51.198;6.676;2024-02-23T01:06:25;5.90;99.90
15777;DHT22;7989;51.198;6.676;2024-02-23T01:08:54;5.90;99.90
15777;DHT22;7989;51.198;6.676;2024-02-23T01:11:20;5.90;99.90
15777;DHT22;7989;51.198;6.676;2024-02-23T01:13:47;5.90;99.90
15777;DHT22;7989;51.198;6.676;2024-02-23T01:16:15;6.00;99.90
15777;DHT22;7989;51.198;6.676;2024-02-23T01:18:42;6.10;99.90
15777;DHT22;7989;51.198;6.676;2024-02-23T01:21:09;6.10;99.90
15777;DHT22;7989;51.198;6.676;2024-02-23T01:23:36;6.10;99.90
15777;DHT22;7989;51.198;6.676;2024-02-23T01:26:03;6.10;99.90
15777;DHT22;7989;51.198;6.676;2024-02-23T01:28:29;6.10;99.90
15777;DHT22;7989;51.198;6.676;2024-02-23T01:30:56;6.10;99.90
15777;DHT22;7989;51.198;6.676;2024-02-23T01:33:24;6.20;99.90
15777;DHT22;7989;51.198;6.676;2024-02-23T01:35:51;6.30;99.90
15777;DHT22;7989;51.198;6.676;2024-02-23T01:38:18;6.30;99.90
15777;DHT22;7989;51.198;6.676;2024-02-23T01:40:46;6.30;99.90
15777;DHT22;7989;51.198;6.676;2024-02-23T01:43:13;6.20;99.90
15777;DHT22;7989;51.198;6.676;2024-02-23T01:45:40;6.20;99.90
15777;DHT22;7989;51.198;6.676;2024-02-23T01:48:07;6.10;99.90
15777;DHT22;7989;51.198;6.676;2024-02-23T01:50:36;6.10;99.90
15777;DHT22;7989;51.198;6.676;2024-02-23T01:53:04;6.10;99.90
15777;DHT22;7989;51.198;6.676;2024-02-23T01:55:32;6.00;99.90
15777;DHT22;7989;51.198;6.676;2024-02-23T01:57:59;6.00;99.90
15777;DHT22;7989;51.198;6.676;2024-02-23T02:00:27;6.00;99.90
15777;DHT22;7989;51.198;6.676;2024-02-23T02:02:53;6.00;99.90
15777;DHT22;7989;51.198;6.676;2024-02-23T02:05:20;6.00;99.90
15777;DHT22;7989;51.198;6.676;2024-02-23T02:07:50;6.00;99.90
15777;DHT22;7989;51.198;6.676;2024-02-23T02:10:20;6.00;99.90
15777;DHT22;7989;51.198;6.676;2024-02-23T02:12:47;6.10;99.90
15777;DHT22;7989;51.198;6.676;2024-02-23T02:15:14;6.10;99.90
15777;DHT22;7989;51.198;6.676;2024-02-23T02:17:40;6.10;99.90
15777;DHT22;7989;51.198;6.676;2024-02-23T02:20:11;6.10;99.90
15777;DHT22;7989;51.198;6.676;2024-02-23T02:22:38;6.00;99.90
15777;DHT22;7989;51.198;6.676;2024-02-23T02:25:07;6.00;99.90
15777;DHT22;7989;51.198;6.676;2024-02-23T02:27:34;6.00;99.90
15777;DHT22;7989;51.198;6.676;2024-02-23T02:30:01;5.90;99.90
15777;DHT22;7989;51.198;6.676;2024-02-23T02:32:28;5.90;99.90
15777;DHT22;7989;51.198;6.676;2024-02-23T02:34:55;5.90;99.90
15777;DHT22;7989;51.198;6.676;2024-02-23T02:37:22;5.90;99.90
15777;DHT22;7989;51.198;6.676;2024-02-23T02:39:48;5.80;99.90
15777;DHT22;7989;51.198;6.676;2024-02-23T02:42:17;5.80;99.90
15777;DHT22;7989;51.198;6.676;2024-02-23T02:44:43;5.80;99.90
15777;DHT22;7989;51.198;6.676;2024-02-23T02:47:10;5.80;99.90
15777;DHT22;7989;51.198;6.676;2024-02-23T02:49:39;5.80;99.90
15777;DHT22;7989;51.198;6.676;2024-02-23T02:52:05;5.80;99.90
15777;DHT22;7989;51.198;6.676;2024-02-23T02:54:33;5.70;99.90
15777;DHT22;7989;51.198;6.676;2024-02-23T02:57:00;5.70;99.90
15777;DHT22;7989;51.198;6.676;2024-02-23T02:59:28;5.70;99.90
15777;DHT22;7989;51.198;6.676;2024-02-23T03:01:57;5.70;99.90
15777;DHT22;7989;51.198;6.676;2024-02-23T03:04:24;5.70;99.90
15777;DHT22;7989;51.198;6.676;2024-02-23T03:06:50;5.70;99.90
15777;DHT22;7989;51.198;6.676;2024-02-23T03:09:17;5.70;99.90
15777;DHT22;7989;51.198;6.676;2024-02-23T03:11:44;5.70;99.90
15777;DHT22;7989;51.198;6.676;2024-02-23T03:14:11;5.70;99.90
15777;DHT22;7989;51.198;6.676;2024-02-23T03:16:39;5.70;99.90
15777;DHT22;7989;51.198;6.676;2024-02-23T03:19:06;5.70;99.90
15777;DHT22;7989;51.198;6.676;2024-02-23T03:21:33;5.70;99.90
15777;DHT22;7989;51.198;6.676;2024-02-23T03:24:00;5.70;99.90
15777;DHT22;7989;51.198;6.676;2024-02-23T03:26:27;5.70;99.90
15777;DHT22;7989;51.198;6.676;2024-02-23T03:28:53;5.60;99.90
15777;DHT22;7989;51.198;6.676;2024-02-23T03:31:20;5.60;99.90
15777;DHT22;7989;51.198;6.676;2024-02-23T03:33:48;5.70;99.90
15777;DHT22;7989;51.198;6.676;2024-02-23T03:36:15;5.60;99.90
15777;DHT22;7989;51.198;6.676;2024-02-23T03:38:42;5.70;99.90
15777;DHT22;7989;51.198;6.676;2024-02-23T03:41:08;5.70;99.90
15777;DHT22;7989;51.198;6.676;2024-02-23T03:43:35;5.60;99.90
15777;DHT22;7989;51.198;6.676;2024-02-23T03:46:03;5.60;99.90
15777;DHT22;7989;51.198;6.676;2024-02-23T03:48:32;5.70;99.90
15777;DHT22;7989;51.198;6.676;2024-02-23T03:51:01;5.60;99.90
15777;DHT22;7989;51.198;6.676;2024-02-23T03:53:29;5.60;99.90
15777;DHT22;7989;51.198;6.676;2024-02-23T03:55:56;5.60;99.90
15777;DHT22;7989;51.198;6.676;2024-02-23T03:58:23;5.60;99.90
15777;DHT22;7989;51.198;6.676;2024-02-23T04:00:50;5.60;99.90
15777;DHT22;7989;51.198;6.676;2024-02-23T04:03:17;5.60;99.90
15777;DHT22;7989;51.198;6.676;2024-02-23T04:05:44;5.60;99.90
15777;DHT22;7989;51.198;6.676;2024-02-23T04:08:12;5.60;99.90
15777;DHT22;7989;51.198;6.676;2024-02-23T04:10:39;5.60;99.90
15777;DHT22;7989;51.198;6.676;2024-02-23T04:13:06;5.60;99.90
15777;DHT22;7989;51.198;6.676;2024-02-23T04:15:33;5.60;99.90
15777;DHT22;7989;51.198;6.676;2024-02-23T04:18:00;5.60;99.90
15777;DHT22;7989;51.198;6.676;2024-02-23T04:20:26;5.60;99.90
15777;DHT22;7989;51.198;6.676;2024-02-23T04:22:53;5.60;99.90
15777;DHT22;7989;51.198;6.676;2024-02-23T04:25:23;5.60;99.90
15777;DHT22;7989;51.198;6.676;2024-02-23T04:27:49;5.60;99.90
15777;DHT22;7989;51.198;6.676;2024-02-23T04:30:16;5.70;99.90
15777;DHT22;7989;51.198;6.676;2024-02-23T04:32:43;5.70;99.90
15777;DHT22;7989;51.198;6.676;2024-02-23T04:35:10;5.60;99.90
15777;DHT22;7989;51.198;6.676;2024-02-23T04:37:37;5.70;99.90
15777;DHT22;7989;51.198;6.676;2024-02-23T04:40:05;5.70;99.90
15777;DHT22;7989;51.198;6.676;2024-02-23T04:42:33;5.70;99.90
15777;DHT22;7989;51.198;6.676;2024-02-23T04:45:00;5.80;99.90
15777;DHT22;7989;51.198;6.676;2024-02-23T04:47:27;5.80;99.90
15777;DHT22;7989;51.198;6.676;2024-02-23T04:49:54;5.90;99.90
15777;DHT22;7989;51.198;6.676;2024-02-23T04:52:20;5.90;99.90
15777;DHT22;7989;51.198;6.676;2024-02-23T04:54:47;6.00;99.90
15777;DHT22;7989;51.198;6.676;2024-02-23T04:57:14;6.00;99.90
15777;DHT22;7989;51.198;6.676;2024-02-23T04:59:42;6.00;99.90
15777;DHT22;7989;51.198;6.676;2024-02-23T05:02:09;6.10;99.90
15777;DHT22;7989;51.198;6.676;2024-02-23T05:04:36;6.10;99.90
15777;DHT22;7989;51.198;6.676;2024-02-23T05:07:03;6.10;99.90
15777;DHT22;7989;51.198;6.676;2024-02-23T05:09:29;6.10;99.90
15777;DHT22;7989;51.198;6.676;2024-02-23T05:11:57;6.10;99.90
15777;DHT22;7989;51.198;6.676;2024-02-23T05:14:24;6.10;99.90
15777;DHT22;7989;51.198;6.676;2024-02-23T05:16:52;6.00;99.90
15777;DHT22;7989;51.198;6.676;2024-02-23T05:19:19;6.00;99.90
15777;DHT22;7989;51.198;6.676;2024-02-23T05:21:46;6.00;99.90
15777;DHT22;7989;51.198;6.676;2024-02-23T05:24:12;6.00;99.90
15777;DHT22;7989;51.198;6.676;2024-02-23T05:26:40;6.00;99.90
15777;DHT22;7989;51.198;6.676;2024-02-23T05:29:08;6.00;99.90
15777;DHT22;7989;51.198;6.676;2024-02-23T05:31:45;6.00;99.90
15777;DHT22;7989;51.198;6.676;2024-02-23T05:34:14;6.10;99.90
15777;DHT22;7989;51.198;6.676;2024-02-23T05:36:41;6.10;99.90
15777;DHT22;7989;51.198;6.676;2024-02-23T05:39:08;6.10;99.90
15777;DHT22;7989;51.198;6.676;2024-02-23T05:41:36;6.10;99.90
15777;DHT22;7989;51.198;6.676;2024-02-23T05:44:03;6.20;99.90
15777;DHT22;7989;51.198;6.676;2024-02-23T05:46:31;6.30;99.90
15777;DHT22;7989;51.198;6.676;2024-02-23T05:48:58;6.30;99.90
15777;DHT22;7989;51.198;6.676;2024-02-23T05:51:27;6.30;99.90
15777;DHT22;7989;51.198;6.676;2024-02-23T05:53:54;6.30;99.90
15777;DHT22;7989;51.198;6.676;2024-02-23T05:56:21;6.30;99.90
15777;DHT22;7989;51.198;6.676;2024-02-23T05:58:49;6.30;99.90
15777;DHT22;7989;51.198;6.676;2024-02-23T06:01:16;6.40;99.90
15777;DHT22;7989;51.198;6.676;2024-02-23T06:03:43;6.40;99.90
15777;DHT22;7989;51.198;6.676;2024-02-23T06:06:10;6.40;99.90
15777;DHT22;7989;51.198;6.676;2024-02-23T06:08:39;6.50;99.90
15777;DHT22;7989;51.198;6.676;2024-02-23T06:11:05;6.50;99.90
15777;DHT22;7989;51.198;6.676;2024-02-23T06:13:32;6.50;99.90
15777;DHT22;7989;51.198;6.676;2024-02-23T06:15:59;6.50;99.90
15777;DHT22;7989;51.198;6.676;2024-02-23T06:18:26;6.50;99.90
15777;DHT22;7989;51.198;6.676;2024-02-23T06:20:53;6.50;99.90
15777;DHT22;7989;51.198;6.676;2024-02-23T06:23:19;6.50;99.90
15777;DHT22;7989;51.198;6.676;2024-02-23T06:25:48;6.50;99.90
15777;DHT22;7989;51.198;6.676;2024-02-23T06:28:15;6.50;99.90
15777;DHT22;7989;51.198;6.676;2024-02-23T06:30:42;6.50;99.90
15777;DHT22;7989;51.198;6.676;2024-02-23T06:33:09;6.50;99.90
15777;DHT22;7989;51.198;6.676;2024-02-23T06:35:36;6.60;99.90
15777;DHT22;7989;51.198;6.676;2024-02-23T06:38:03;6.60;99.90
15777;DHT22;7989;51.198;6.676;2024-02-23T06:40:31;6.60;99.90
15777;DHT22;7989;51.198;6.676;2024-02-23T06:42:59;6.60;99.90
15777;DHT22;7989;51.198;6.676;2024-02-23T06:45:26;6.60;99.90
15777;DHT22;7989;51.198;6.676;2024-02-23T06:47:52;6.60;99.90
15777;DHT22;7989;51.198;6.676;2024-02-23T06:50:19;6.60;99.90
15777;DHT22;7989;51.198;6.676;2024-02-23T06:52:47;6.70;99.90
15777;DHT22;7989;51.198;6.676;2024-02-23T06:55:15;6.70;99.90
15777;DHT22;7989;51.198;6.676;2024-02-23T06:57:43;6.70;99.90
15777;DHT22;7989;51.198;6.676;2024-02-23T07:00:12;6.80;99.90
15777;DHT22;7989;51.198;6.676;2024-02-23T07:02:39;6.80;99.90
15777;DHT22;7989;51.198;6.676;2024-02-23T07:05:06;6.70;99.90
15777;DHT22;7989;51.198;6.676;2024-02-23T07:07:34;6.70;99.90
15777;DHT22;7989;51.198;6.676;2024-02-23T07:10:02;6.70;99.90
15777;DHT22;7989;51.198;6.676;2024-02-23T07:12:28;6.70;99.90
15777;DHT22;7989;51.198;6.676;2024-02-23T07:14:55;6.70;99.90
15777;DHT22;7989;51.198;6.676;2024-02-23T07:17:24;6.60;99.90
15777;DHT22;7989;51.198;6.676;2024-02-23T07:19:50;6.70;99.90
15777;DHT22;7989;51.198;6.676;2024-02-23T07:22:18;6.80;99.90
15777;DHT22;7989;51.198;6.676;2024-02-23T07:24:46;6.80;99.90
15777;DHT22;7989;51.198;6.676;2024-02-23T07:27:13;6.90;99.90
15777;DHT22;7989;51.198;6.676;2024-02-23T07:29:40;6.90;99.90
15777;DHT22;7989;51.198;6.676;2024-02-23T07:32:06;6.90;99.90
15777;DHT22;7989;51.198;6.676;2024-02-23T07:34:35;6.90;99.90
15777;DHT22;7989;51.198;6.676;2024-02-23T07:37:01;6.90;99.90
15777;DHT22;7989;51.198;6.676;2024-02-23T07:39:29;6.90;99.90
15777;DHT22;7989;51.198;6.676;2024-02-23T07:41:56;6.90;99.90
15777;DHT22;7989;51.198;6.676;2024-02-23T07:44:22;6.80;99.90
15777;DHT22;7989;51.198;6.676;2024-02-23T07:46:50;6.80;99.90
15777;DHT22;7989;51.198;6.676;2024-02-23T07:49:17;6.80;99.90
15777;DHT22;7989;51.198;6.676;2024-02-23T07:51:46;6.90;99.90
15777;DHT22;7989;51.198;6.676;2024-02-23T07:54:13;7.10;99.90
15777;DHT22;7989;51.198;6.676;2024-02-23T07:56:40;7.40;99.90
15777;DHT22;7989;51.198;6.676;2024-02-23T07:59:06;7.50;99.90
15777;DHT22;7989;51.198;6.676;2024-02-23T08:01:33;7.60;99.90
15777;DHT22;7989;51.198;6.676;2024-02-23T08:04:00;7.70;99.90
15777;DHT22;7989;51.198;6.676;2024-02-23T08:06:28;7.70;99.90
15777;DHT22;7989;51.198;6.676;2024-02-23T08:08:56;7.70;99.90
15777;DHT22;7989;51.198;6.676;2024-02-23T08:11:23;7.70;99.90
15777;DHT22;7989;51.198;6.676;2024-02-23T08:13:50;7.60;99.90
15777;DHT22;7989;51.198;6.676;2024-02-23T08:16:17;7.50;99.90
15777;DHT22;7989;51.198;6.676;2024-02-23T08:18:44;7.60;99.90
15777;DHT22;7989;51.198;6.676;2024-02-23T08:21:11;7.70;99.90
15777;DHT22;7989;51.198;6.676;2024-02-23T08:23:38;7.80;99.90
15777;DHT22;7989;51.198;6.676;2024-02-23T08:26:06;7.90;99.90
15777;DHT22;7989;51.198;6.676;2024-02-23T08:28:33;7.70;99.90
15777;DHT22;7989;51.198;6.676;2024-02-23T08:30:59;7.70;99.90
15777;DHT22;7989;51.198;6.676;2024-02-23T08:33:26;7.70;99.90
15777;DHT22;7989;51.198;6.676;2024-02-23T08:35:53;7.70;99.90
15777;DHT22;7989;51.198;6.676;2024-02-23T08:38:20;7.70;99.90
15777;DHT22;7989;51.198;6.676;2024-02-23T08:40:47;7.80;99.90
15777;DHT22;7989;51.198;6.676;2024-02-23T08:43:15;7.90;99.90
15777;DHT22;7989;51.198;6.676;2024-02-23T08:45:42;8.00;99.90
15777;DHT22;7989;51.198;6.676;2024-02-23T08:48:09;8.20;99.90
15777;DHT22;7989;51.198;6.676;2024-02-23T08:50:40;8.70;99.90
15777;DHT22;7989;51.198;6.676;2024-02-23T08:53:07;8.60;99.90
15777;DHT22;7989;51.198;6.676;2024-02-23T08:55:33;8.40;99.90
15777;DHT22;7989;51.198;6.676;2024-02-23T08:58:00;8.30;99.90
15777;DHT22;7989;51.198;6.676;2024-02-23T09:00:28;8.20;99.90
15777;DHT22;7989;51.198;6.676;2024-02-23T09:02:55;8.50;99.90
15777;DHT22;7989;51.198;6.676;2024-02-23T09:05:22;9.40;99.90
15777;DHT22;7989;51.198;6.676;2024-02-23T09:07:49;10.30;99.90
15777;DHT22;7989;51.198;6.676;2024-02-23T09:10:15;10.80;99.90
15777;DHT22;7989;51.198;6.676;2024-02-23T09:12:43;11.00;99.90
15777;DHT22;7989;51.198;6.676;2024-02-23T09:15:10;10.80;99.90
15777;DHT22;7989;51.198;6.676;2024-02-23T09:17:40;10.00;99.90
15777;DHT22;7989;51.198;6.676;2024-02-23T09:20:07;9.40;99.90
15777;DHT22;7989;51.198;6.676;2024-02-23T09:22:34;9.20;99.90
15777;DHT22;7989;51.198;6.676;2024-02-23T09:25:02;9.20;99.90
15777;DHT22;7989;51.198;6.676;2024-02-23T09:27:30;9.20;99.90
15777;DHT22;7989;51.198;6.676;2024-02-23T09:29:57;9.20;99.90
15777;DHT22;7989;51.198;6.676;2024-02-23T09:32:24;9.10;99.90
15777;DHT22;7989;51.198;6.676;2024-02-23T09:34:52;8.90;99.90
15777;DHT22;7989;51.198;6.676;2024-02-23T09:37:19;8.80;99.90
15777;DHT22;7989;51.198;6.676;2024-02-23T09:39:46;8.70;99.90
15777;DHT22;7989;51.198;6.676;2024-02-23T09:42:13;8.70;99.90
15777;DHT22;7989;51.198;6.676;2024-02-23T09:44:41;8.70;99.90
15777;DHT22;7989;51.198;6.676;2024-02-23T09:47:12;8.70;99.90
15777;DHT22;7989;51.198;6.676;2024-02-23T09:49:40;8.60;99.90
15777;DHT22;7989;51.198;6.676;2024-02-23T09:52:09;8.70;99.90
15777;DHT22;7989;51.198;6.676;2024-02-23T09:54:36;8.70;99.90
15777;DHT22;7989;51.198;6.676;2024-02-23T09:57:07;9.10;99.90
15777;DHT22;7989;51.198;6.676;2024-02-23T09:59:34;9.50;99.90
15777;DHT22;7989;51.198;6.676;2024-02-23T10:02:01;9.80;99.90
15777;DHT22;7989;51.198;6.676;2024-02-23T10:04:30;9.80;99.90
15777;DHT22;7989;51.198;6.676;2024-02-23T10:06:57;9.70;99.90
15777;DHT22;7989;51.198;6.676;2024-02-23T10:09:25;9.60;99.90
15777;DHT22;7989;51.198;6.676;2024-02-23T10:11:52;9.60;99.90
15777;DHT22;7989;51.198;6.676;2024-02-23T10:14:20;9.50;99.90
15777;DHT22;7989;51.198;6.676;2024-02-23T10:16:47;9.60;99.90
15777;DHT22;7989;51.198;6.676;2024-02-23T10:19:13;9.60;99.90
15777;DHT22;7989;51.198;6.676;2024-02-23T10:21:40;9.50;99.90
15777;DHT22;7989;51.198;6.676;2024-02-23T10:24:07;9.40;99.90
15777;DHT22;7989;51.198;6.676;2024-02-23T10:26:35;9.20;99.90
15777;DHT22;7989;51.198;6.676;2024-02-23T10:29:02;9.20;99.90
15777;DHT22;7989;51.198;6.676;2024-02-23T10:31:33;9.30;99.90
15777;DHT22;7989;51.198;6.676;2024-02-23T10:34:02;9.50;99.90
15777;DHT22;7989;51.198;6.676;2024-02-23T10:36:36;9.50;99.90
15777;DHT22;7989;51.198;6.676;2024-02-23T10:39:08;9.40;99.90
15777;DHT22;7989;51.198;6.676;2024-02-23T10:41:36;9.30;99.90
15777;DHT22;7989;51.198;6.676;2024-02-23T10:44:04;9.30;99.90
15777;DHT22;7989;51.198;6.676;2024-02-23T10:46:32;9.30;99.90
15777;DHT22;7989;51.198;6.676;2024-02-23T10:48:59;9.40;99.90
15777;DHT22;7989;51.198;6.676;2024-02-23T10:51:26;9.40;99.90
15777;DHT22;7989;51.198;6.676;2024-02-23T10:53:53;9.40;99.90
15777;DHT22;7989;51.198;6.676;2024-02-23T10:56:20;9.30;99.90
15777;DHT22;7989;51.198;6.676;2024-02-23T10:58:49;9.20;99.90
15777;DHT22;7989;51.198;6.676;2024-02-23T11:01:16;9.20;99.90
15777;DHT22;7989;51.198;6.676;2024-02-23T11:03:45;9.10;99.90
15777;DHT22;7989;51.198;6.676;2024-02-23T11:06:15;9.10;99.90
15777;DHT22;7989;51.198;6.676;2024-02-23T11:08:46;9.10;99.90
15777;DHT22;7989;51.198;6.676;2024-02-23T11:11:16;9.10;99.90
15777;DHT22;7989;51.198;6.676;2024-02-23T11:13:44;9.10;99.90
15777;DHT22;7989;51.198;6.676;2024-02-23T11:16:22;9.20;99.90
15777;DHT22;7989;51.198;6.676;2024-02-23T11:18:49;9.20;99.90
15777;DHT22;7989;51.198;6.676;2024-02-23T11:21:15;9.30;99.90
15777;DHT22;7989;51.198;6.676;2024-02-23T11:23:44;9.50;99.90
15777;DHT22;7989;51.198;6.676;2024-02-23T11:26:11;9.80;99.90
15777;DHT22;7989;51.198;6.676;2024-02-23T11:28:47;10.00;99.90
15777;DHT22;7989;51.198;6.676;2024-02-23T11:31:19;10.00;99.90
15777;DHT22;7989;51.198;6.676;2024-02-23T11:33:49;9.90;99.90
15777;DHT22;7989;51.198;6.676;2024-02-23T11:36:22;9.80;99.90
15777;DHT22;7989;51.198;6.676;2024-02-23T11:38:52;9.70;99.90
15777;DHT22;7989;51.198;6.676;2024-02-23T11:41:21;9.70;99.90
15777;DHT22;7989;51.198;6.676;2024-02-23T11:43:48;9.80;99.90
15777;DHT22;7989;51.198;6.676;2024-02-23T11:46:16;9.80;99.90
15777;DHT22;7989;51.198;6.676;2024-02-23T11:48:43;9.90;99.90
15777;DHT22;7989;51.198;6.676;2024-02-23T11:51:12;10.00;99.90
15777;DHT22;7989;51.198;6.676;2024-02-23T11:53:39;10.20;99.90
15777;DHT22;7989;51.198;6.676;2024-02-23T11:56:06;10.20;99.90
15777;DHT22;7989;51.198;6.676;2024-02-23T11:58:33;10.00;99.90
15777;DHT22;7989;51.198;6.676;2024-02-23T12:01:00;10.10;99.90
15777;DHT22;7989;51.198;6.676;2024-02-23T12:03:29;10.00;99.90
15777;DHT22;7989;51.198;6.676;2024-02-23T12:05:57;10.20;99.90
15777;DHT22;7989;51.198;6.676;2024-02-23T12:08:24;10.40;99.90
15777;DHT22;7989;51.198;6.676;2024-02-23T12:10:54;10.60;99.90
15777;DHT22;7989;51.198;6.676;2024-02-23T12:13:21;10.40;99.90
15777;DHT22;7989;51.198;6.676;2024-02-23T12:15:51;10.40;99.90
15777;DHT22;7989;51.198;6.676;2024-02-23T12:18:18;10.30;99.90
15777;DHT22;7989;51.198;6.676;2024-02-23T12:20:50;10.30;99.90
15777;DHT22;7989;51.198;6.676;2024-02-23T12:23:17;10.30;99.90
15777;DHT22;7989;51.198;6.676;2024-02-23T12:25:52;10.30;99.90
15777;DHT22;7989;51.198;6.676;2024-02-23T12:28:19;10.20;99.90
15777;DHT22;7989;51.198;6.676;2024-02-23T12:30:46;10.50;99.90
15777;DHT22;7989;51.198;6.676;2024-02-23T12:33:15;10.80;99.90
15777;DHT22;7989;51.198;6.676;2024-02-23T12:35:42;11.60;99.90
15777;DHT22;7989;51.198;6.676;2024-02-23T12:38:10;12.70;99.90
15777;DHT22;7989;51.198;6.676;2024-02-23T12:40:37;14.00;99.90
15777;DHT22;7989;51.198;6.676;2024-02-23T12:43:04;14.50;99.90
15777;DHT22;7989;51.198;6.676;2024-02-23T12:45:31;14.90;99.90
15777;DHT22;7989;51.198;6.676;2024-02-23T12:47:57;14.30;99.90
15777;DHT22;7989;51.198;6.676;2024-02-23T12:50:24;13.50;99.90
15777;DHT22;7989;51.198;6.676;2024-02-23T12:52:51;13.20;99.90
15777;DHT22;7989;51.198;6.676;2024-02-23T12:55:19;13.50;99.90
15777;DHT22;7989;51.198;6.676;2024-02-23T12:57:46;14.50;99.90
15777;DHT22;7989;51.198;6.676;2024-02-23T13:00:14;14.10;99.90
15777;DHT22;7989;51.198;6.676;2024-02-23T13:02:41;13.50;99.90
15777;DHT22;7989;51.198;6.676;2024-02-23T13:05:08;13.20;99.90
15777;DHT22;7989;51.198;6.676;2024-02-23T13:07:35;13.40;99.90
15777;DHT22;7989;51.198;6.676;2024-02-23T13:10:04;13.40;99.90
15777;DHT22;7989;51.198;6.676;2024-02-23T13:12:33;13.50;99.90
15777;DHT22;7989;51.198;6.676;2024-02-23T13:14:59;14.40;99.90
15777;DHT22;7989;51.198;6.676;2024-02-23T13:17:26;15.30;99.90
15777;DHT22;7989;51.198;6.676;2024-02-23T13:19:53;15.70;99.90
15777;DHT22;7989;51.198;6.676;2024-02-23T13:22:20;15.60;99.90
15777;DHT22;7989;51.198;6.676;2024-02-23T13:24:47;14.90;99.90
15777;DHT22;7989;51.198;6.676;2024-02-23T13:27:13;14.80;99.90
15777;DHT22;7989;51.198;6.676;2024-02-23T13:29:41;14.40;99.90
15777;DHT22;7989;51.198;6.676;2024-02-23T13:32:08;14.00;99.90
15777;DHT22;7989;51.198;6.676;2024-02-23T13:34:36;13.10;99.90
15777;DHT22;7989;51.198;6.676;2024-02-23T13:37:03;12.30;99.90
15777;DHT22;7989;51.198;6.676;2024-02-23T13:39:30;11.70;99.90
15777;DHT22;7989;51.198;6.676;2024-02-23T13:41:57;11.50;99.90
15777;DHT22;7989;51.198;6.676;2024-02-23T13:44:24;11.50;99.90
15777;DHT22;7989;51.198;6.676;2024-02-23T13:46:53;11.60;99.90
15777;DHT22;7989;51.198;6.676;2024-02-23T13:49:19;11.60;99.90
15777;DHT22;7989;51.198;6.676;2024-02-23T13:51:46;11.80;99.90
15777;DHT22;7989;51.198;6.676;2024-02-23T13:54:13;11.90;99.90
15777;DHT22;7989;51.198;6.676;2024-02-23T13:56:40;11.80;99.90
15777;DHT22;7989;51.198;6.676;2024-02-23T13:59:07;11.80;99.90
15777;DHT22;7989;51.198;6.676;2024-02-23T14:01:33;11.50;99.90
15777;DHT22;7989;51.198;6.676;2024-02-23T14:04:06;11.20;99.90
15777;DHT22;7989;51.198;6.676;2024-02-23T14:06:33;11.10;99.90
15777;DHT22;7989;51.198;6.676;2024-02-23T14:09:00;11.10;99.90
15777;DHT22;7989;51.198;6.676;2024-02-23T14:11:29;11.10;99.90
15777;DHT22;7989;51.198;6.676;2024-02-23T14:13:55;11.10;99.90
15777;DHT22;7989;51.198;6.676;2024-02-23T14:16:22;10.90;99.90
15777;DHT22;7989;51.198;6.676;2024-02-23T14:18:49;10.80;99.90
15777;DHT22;7989;51.198;6.676;2024-02-23T14:21:18;10.70;99.90
15777;DHT22;7989;51.198;6.676;2024-02-23T14:23:46;10.40;99.90
15777;DHT22;7989;51.198;6.676;2024-02-23T14:26:13;9.80;99.90
15777;DHT22;7989;51.198;6.676;2024-02-23T14:28:40;9.40;99.90
15777;DHT22;7989;51.198;6.676;2024-02-23T14:31:07;9.30;99.90
15777;DHT22;7989;51.198;6.676;2024-02-23T14:33:33;9.40;99.90
15777;DHT22;7989;51.198;6.676;2024-02-23T14:36:00;9.50;99.90
15777;DHT22;7989;51.198;6.676;2024-02-23T14:38:28;9.60;99.90
15777;DHT22;7989;51.198;6.676;2024-02-23T14:40:55;9.80;99.90
15777;DHT22;7989;51.198;6.676;2024-02-23T14:43:22;9.90;99.90
15777;DHT22;7989;51.198;6.676;2024-02-23T14:45:49;9.90;99.90
15777;DHT22;7989;51.198;6.676;2024-02-23T14:48:17;10.00;99.90
15777;DHT22;7989;51.198;6.676;2024-02-23T14:50:43;10.00;99.90
15777;DHT22;7989;51.198;6.676;2024-02-23T14:53:10;10.00;99.90
15777;DHT22;7989;51.198;6.676;2024-02-23T14:55:39;10.00;99.90
15777;DHT22;7989;51.198;6.676;2024-02-23T14:58:06;10.10;99.90
15777;DHT22;7989;51.198;6.676;2024-02-23T15:00:33;10.10;99.90
15777;DHT22;7989;51.198;6.676;2024-02-23T15:03:01;10.20;99.90
15777;DHT22;7989;51.198;6.676;2024-02-23T15:05:29;10.20;99.90
15777;DHT22;7989;51.198;6.676;2024-02-23T15:07:56;10.40;99.90
15777;DHT22;7989;51.198;6.676;2024-02-23T15:10:23;10.30;99.90
15777;DHT22;7989;51.198;6.676;2024-02-23T15:12:51;10.20;99.90
15777;DHT22;7989;51.198;6.676;2024-02-23T15:15:18;10.20;99.90
15777;DHT22;7989;51.198;6.676;2024-02-23T15:17:45;10.20;99.90
15777;DHT22;7989;51.198;6.676;2024-02-23T15:20:14;10.20;99.90
15777;DHT22;7989;51.198;6.676;2024-02-23T15:22:41;10.30;99.90
15777;DHT22;7989;51.198;6.676;2024-02-23T15:25:08;10.20;99.90
15777;DHT22;7989;51.198;6.676;2024-02-23T15:27:37;10.10;99.90
15777;DHT22;7989;51.198;6.676;2024-02-23T15:30:06;10.10;99.90
15777;DHT22;7989;51.198;6.676;2024-02-23T15:32:34;10.20;99.90
15777;DHT22;7989;51.198;6.676;2024-02-23T15:35:05;10.30;99.90
15777;DHT22;7989;51.198;6.676;2024-02-23T15:37:33;11.00;99.90
15777;DHT22;7989;51.198;6.676;2024-02-23T15:40:00;11.70;99.90
15777;DHT22;7989;51.198;6.676;2024-02-23T15:42:29;11.60;99.90
15777;DHT22;7989;51.198;6.676;2024-02-23T15:44:57;11.20;99.90
15777;DHT22;7989;51.198;6.676;2024-02-23T15:47:25;11.00;99.90
15777;DHT22;7989;51.198;6.676;2024-02-23T15:49:52;10.80;99.90
15777;DHT22;7989;51.198;6.676;2024-02-23T15:52:19;10.60;99.90
15777;DHT22;7989;51.198;6.676;2024-02-23T15:54:46;10.80;99.90
15777;DHT22;7989;51.198;6.676;2024-02-23T15:57:13;11.00;99.90